Time;durP1;ratioP1;P1;durP2;ratioP2;P2;SDS_P1;SDS_P2;PMS_P1;PMS_P2;Temp;Humidity;BMP_temperature;BMP_pressure;BME280_temperature;BME280_humidity;BME280_pressure;Samples;Min_cycle;Max_cycle;Signal;HPM_P1;HPM_P2
2021/01/21 00:02:10;;;;;;;7.50;2.00;;;7.70;73.60;;;;;;5033324;28;20053;-61
2021/01/21 00:04:36;;;;;;;5.57;1.97;;;7.80;73.50;;;;;;5033625;28;20041;-63
2021/01/21 00:07:01;;;;;;;8.40;2.67;;;7.90;73.50;;;;;;5032855;28;20120;-63
2021/01/21 00:09:27;;;;;;;7.80;2.37;;;7.90;73.60;;;;;;5033227;28;20092;-63
2021/01/21 00:11:53;;;;;;;8.60;2.20;;;8.00;73.20;;;;;;5033726;28;20129;-62
2021/01/21 00:14:19;;;;;;;8.37;2.30;;;8.00;73.10;;;;;;5033450;28;20033;-63
2021/01/21 00:16:45;;;;;;;6.40;2.23;;;8.00;73.00;;;;;;5032242;28;20049;-63
2021/01/21 00:19:10;;;;;;;6.77;2.03;;;8.00;73.00;;;;;;5033515;28;20033;-63
2021/01/21 00:21:36;;;;;;;6.90;2.13;;;7.90;72.90;;;;;;5032909;28;20045;-63
2021/01/21 00:24:02;;;;;;;7.13;2.20;;;7.90;73.00;;;;;;5033267;28;20034;-61
2021/01/21 00:26:28;;;;;;;6.93;2.00;;;7.90;73.00;;;;;;5032603;28;20029;-64
2021/01/21 00:28:54;;;;;;;6.13;2.10;;;7.90;73.00;;;;;;5032816;28;20045;-62
2021/01/21 00:31:19;;;;;;;7.93;2.20;;;7.90;73.00;;;;;;5033394;28;20640;-64
2021/01/21 00:33:45;;;;;;;5.77;2.00;;;7.90;73.00;;;;;;5032593;28;20116;-63
2021/01/21 00:36:13;;;;;;;8.40;2.30;;;7.90;73.10;;;;;;5032222;28;20516;-63
2021/01/21 00:38:39;;;;;;;8.40;2.07;;;7.90;73.10;;;;;;5033143;28;20038;-63
2021/01/21 00:41:05;;;;;;;5.50;1.93;;;7.90;73.40;;;;;;5014786;28;20398;-61
2021/01/21 00:43:30;;;;;;;7.73;2.13;;;7.90;73.30;;;;;;5032993;28;20041;-62
2021/01/21 00:45:57;;;;;;;7.33;2.10;;;7.90;73.20;;;;;;5031789;28;20037;-63
2021/01/21 00:48:23;;;;;;;6.67;2.10;;;7.90;73.30;;;;;;5031354;28;20049;-63
2021/01/21 00:50:49;;;;;;;7.27;2.00;;;8.00;73.50;;;;;;5032903;28;20038;-63
2021/01/21 00:53:15;;;;;;;6.60;1.80;;;8.00;73.50;;;;;;5032443;28;20991;-63
2021/01/21 00:55:42;;;;;;;5.43;1.80;;;8.00;73.30;;;;;;5031996;28;20042;-63
2021/01/21 00:58:08;;;;;;;5.20;1.80;;;8.10;73.40;;;;;;5014217;28;20076;-64
2021/01/21 01:00:35;;;;;;;6.23;2.00;;;8.20;73.30;;;;;;5014584;28;20033;-62
2021/01/21 01:03:06;;;;;;;5.53;1.87;;;8.10;73.10;;;;;;5032683;28;20044;-63
2021/01/21 01:05:35;;;;;;;6.13;1.90;;;8.20;73.10;;;;;;5013801;28;20030;-63
2021/01/21 01:08:01;;;;;;;5.70;2.00;;;8.20;73.00;;;;;;5032517;28;20060;-63
2021/01/21 01:10:27;;;;;;;6.30;2.20;;;8.20;73.00;;;;;;5032128;28;20038;-63
2021/01/21 01:12:57;;;;;;;6.83;2.27;;;8.20;72.90;;;;;;5032525;28;20325;-63
2021/01/21 01:15:29;;;;;;;6.63;2.00;;;8.20;73.00;;;;;;5013853;28;20034;-63
2021/01/21 01:17:55;;;;;;;6.77;1.80;;;8.10;73.00;;;;;;5031988;28;20049;-61
2021/01/21 01:20:21;;;;;;;6.47;2.33;;;8.20;73.10;;;;;;5032219;28;20737;-62
2021/01/21 01:22:52;;;;;;;5.47;1.90;;;8.10;73.00;;;;;;5031849;28;20076;-63
2021/01/21 01:25:18;;;;;;;6.27;1.80;;;8.10;72.90;;;;;;5031821;28;20041;-61
2021/01/21 01:27:46;;;;;;;5.10;1.60;;;8.20;73.00;;;;;;5014009;28;20039;-61
2021/01/21 01:30:14;;;;;;;5.33;1.70;;;8.10;72.90;;;;;;5014332;28;20088;-63
2021/01/21 01:32:41;;;;;;;5.70;1.80;;;8.10;73.00;;;;;;5032122;28;20051;-63
2021/01/21 01:35:07;;;;;;;7.20;2.00;;;8.00;73.00;;;;;;4997226;28;20413;-63
2021/01/21 01:37:33;;;;;;;5.53;1.93;;;8.00;73.10;;;;;;5014071;28;20518;-63
2021/01/21 01:40:10;;;;;;;7.30;1.87;;;8.00;73.30;;;;;;5013771;28;20072;-62
2021/01/21 01:42:42;;;;;;;4.23;1.90;;;8.00;73.40;;;;;;5013983;28;20568;-62
2021/01/21 01:45:11;;;;;;;4.97;1.80;;;8.00;73.40;;;;;;5013097;28;20056;-62
2021/01/21 01:47:39;;;;;;;7.70;1.90;;;8.00;73.50;;;;;;5013781;28;20037;-63
2021/01/21 01:50:07;;;;;;;6.03;2.00;;;8.00;73.70;;;;;;5014131;28;20040;-62
2021/01/21 01:52:44;;;;;;;4.73;1.70;;;8.00;73.80;;;;;;5013984;28;20029;-63
2021/01/21 01:55:20;;;;;;;6.27;1.80;;;8.10;73.80;;;;;;5029272;28;20057;-63
2021/01/21 01:57:57;;;;;;;4.93;1.70;;;8.10;73.70;;;;;;5013935;28;20124;-63
2021/01/21 02:00:29;;;;;;;5.60;1.80;;;8.10;73.70;;;;;;5013423;28;20116;-63
2021/01/21 02:03:03;;;;;;;5.27;1.73;;;8.20;73.70;;;;;;5031514;28;20041;-63
2021/01/21 02:05:34;;;;;;;5.50;1.88;;;8.20;73.60;;;;;;5012644;28;20502;-62
2021/01/21 02:08:00;;;;;;;7.00;2.03;;;8.20;73.40;;;;;;5013588;28;20405;-63
2021/01/21 02:10:29;;;;;;;7.20;1.80;;;8.20;73.40;;;;;;5030034;28;20500;-62
2021/01/21 02:13:32;;;;;;;7.77;1.93;;;8.20;73.40;;;;;;5013732;28;20029;-63
2021/01/21 02:16:33;;;;;;;5.67;1.80;;;8.10;73.50;;;;;;5012611;28;20107;-63
2021/01/21 02:19:18;;;;;;;3.80;1.67;;;8.10;73.50;;;;;;5023622;28;20235;-63
2021/01/21 02:21:59;;;;;;;5.20;1.90;;;8.10;73.60;;;;;;5031194;28;20075;-63
2021/01/21 02:24:43;;;;;;;6.10;2.03;;;8.10;73.70;;;;;;5013176;28;20034;-63
2021/01/21 02:27:11;;;;;;;4.97;1.60;;;8.10;73.80;;;;;;5012578;28;20038;-62
2021/01/21 02:29:41;;;;;;;4.47;1.70;;;8.10;73.80;;;;;;5013430;28;20054;-63
2021/01/21 02:32:06;;;;;;;6.00;1.80;;;8.10;73.90;;;;;;5031130;28;20096;-63
2021/01/21 02:34:40;;;;;;;5.50;1.63;;;8.10;73.80;;;;;;5012553;28;20112;-61
2021/01/21 02:37:25;;;;;;;5.50;1.70;;;8.10;73.80;;;;;;5012928;28;20037;-62
2021/01/21 02:40:04;;;;;;;6.07;1.90;;;8.00;73.80;;;;;;5030587;28;20048;-63
2021/01/21 02:42:46;;;;;;;4.95;1.63;;;8.10;73.90;;;;;;5012738;28;20033;-64
2021/01/21 02:45:17;;;;;;;6.27;1.80;;;8.00;73.80;;;;;;5012735;28;20033;-62
2021/01/21 02:47:47;;;;;;;5.72;1.70;;;8.00;74.00;;;;;;5012776;28;20124;-63
2021/01/21 02:50:14;;;;;;;8.17;2.10;;;8.00;73.90;;;;;;5013225;28;20037;-63
2021/01/21 02:52:47;;;;;;;6.60;1.83;;;8.00;73.90;;;;;;5013041;28;20068;-64
2021/01/21 02:55:30;;;;;;;6.13;1.93;;;8.00;74.00;;;;;;5012295;28;20084;-62
2021/01/21 02:58:19;;;;;;;6.47;1.80;;;8.00;73.90;;;;;;5012710;28;20034;-62
2021/01/21 03:00:47;;;;;;;4.73;1.70;;;7.90;74.10;;;;;;5030709;28;20513;-62
2021/01/21 03:03:18;;;;;;;6.27;1.90;;;7.90;74.20;;;;;;5012575;28;20116;-63
2021/01/21 03:05:50;;;;;;;4.50;1.70;;;7.90;74.20;;;;;;5012206;28;20034;-62
2021/01/21 03:08:16;;;;;;;5.20;1.60;;;8.00;74.30;;;;;;5030390;28;20034;-63
2021/01/21 03:10:42;;;;;;;6.00;1.60;;;7.90;74.20;;;;;;5029270;28;20040;-63
2021/01/21 03:13:10;;;;;;;5.17;1.70;;;7.90;74.30;;;;;;5012452;28;20640;-63
2021/01/21 03:15:44;;;;;;;8.33;2.10;;;7.90;74.30;;;;;;5012159;28;20068;-63
2021/01/21 03:18:14;;;;;;;5.22;1.90;;;7.90;74.40;;;;;;5012902;28;20064;-63
2021/01/21 03:20:40;;;;;;;6.50;1.80;;;7.90;74.40;;;;;;5012325;28;20502;-63
2021/01/21 03:23:09;;;;;;;6.63;1.87;;;7.80;74.30;;;;;;5015750;28;20088;-61
2021/01/21 03:25:41;;;;;;;5.77;1.73;;;7.90;74.40;;;;;;5015509;28;20030;-63
2021/01/21 03:28:11;;;;;;;5.75;1.95;;;7.90;74.70;;;;;;5016729;28;20037;-63
2021/01/21 03:30:37;;;;;;;6.90;2.00;;;7.90;74.70;;;;;;5016251;28;20030;-63
2021/01/21 03:33:05;;;;;;;8.93;2.07;;;8.00;74.70;;;;;;5034235;28;20124;-64
2021/01/21 03:35:41;;;;;;;6.23;1.80;;;8.00;74.60;;;;;;5015366;28;20128;-63
2021/01/21 03:38:07;;;;;;;6.60;2.03;;;8.00;74.60;;;;;;5016435;28;20033;-62
2021/01/21 03:40:43;;;;;;;4.70;1.43;;;8.00;74.60;;;;;;5015886;28;20029;-63
2021/01/21 03:43:09;;;;;;;8.20;1.93;;;8.10;74.60;;;;;;5033942;28;20088;-63
2021/01/21 03:45:52;;;;;;;6.87;1.70;;;8.10;74.50;;;;;;5015149;28;20029;-63
2021/01/21 03:48:18;;;;;;;5.87;1.70;;;8.10;74.50;;;;;;5016293;28;20030;-63
2021/01/21 03:51:02;;;;;;;8.40;1.80;;;8.20;74.40;;;;;;5033499;28;20049;-63
2021/01/21 03:53:28;;;;;;;5.70;1.67;;;8.20;74.40;;;;;;5016269;28;20074;-63
2021/01/21 03:56:17;;;;;;;4.93;1.70;;;8.20;74.40;;;;;;5024465;28;20037;-60
2021/01/21 03:58:44;;;;;;;3.63;1.40;;;8.20;74.40;;;;;;4999709;28;20037;-62
2021/01/21 04:01:16;;;;;;;5.90;1.70;;;8.30;74.30;;;;;;5015536;28;20044;-62
2021/01/21 04:03:43;;;;;;;5.83;1.60;;;8.30;74.10;;;;;;5032468;28;20030;-63
2021/01/21 04:06:10;;;;;;;5.47;2.00;;;8.30;73.80;;;;;;5014864;28;20152;-63
2021/01/21 04:08:36;;;;;;;5.17;1.60;;;8.30;73.80;;;;;;5033555;28;20033;-63
2021/01/21 04:11:37;;;;;;;;;;;8.30;73.80;;;;;;5017659;28;20030;-63
2021/01/21 04:14:08;;;;;;;5.38;1.60;;;8.30;73.90;;;;;;5015980;28;19972;-63
2021/01/21 04:16:37;;;;;;;9.23;1.90;;;8.20;73.60;;;;;;5014731;28;20025;-64
2021/01/21 04:19:03;;;;;;;5.73;1.53;;;8.30;73.50;;;;;;5015719;28;20034;-63
2021/01/21 04:21:29;;;;;;;5.20;1.50;;;8.20;73.50;;;;;;5032971;28;20037;-63
2021/01/21 04:24:04;;;;;;;5.67;1.60;;;8.10;73.70;;;;;;5015661;28;20116;-63
2021/01/21 04:26:45;;;;;;;5.70;1.70;;;8.10;73.70;;;;;;5014566;28;20490;-62
2021/01/21 04:29:13;;;;;;;5.27;1.60;;;8.00;73.80;;;;;;5015376;28;20485;-62
2021/01/21 04:31:41;;;;;;;4.63;1.70;;;8.00;73.60;;;;;;5015014;28;20409;-62
2021/01/21 04:34:14;;;;;;;5.33;1.60;;;8.00;73.80;;;;;;5014585;28;20093;-62
2021/01/21 04:36:41;;;;;;;4.10;1.53;;;7.90;74.10;;;;;;5014469;28;20029;-62
2021/01/21 04:39:09;;;;;;;6.13;1.70;;;7.90;74.00;;;;;;5015355;28;20085;-63
2021/01/21 04:41:39;;;;;;;5.37;1.40;;;7.90;74.00;;;;;;5015054;28;20029;-61
2021/01/21 04:44:22;;;;;;;3.93;1.20;;;7.90;74.10;;;;;;5015035;28;20029;-63
2021/01/21 04:47:16;;;;;;;7.50;1.90;;;7.80;74.00;;;;;;5028079;28;20493;-62
2021/01/21 04:50:15;;;;;;;5.07;1.60;;;7.80;74.10;;;;;;5010127;28;20042;-63
2021/01/21 04:52:57;;;;;;;3.80;1.40;;;7.70;74.10;;;;;;5000971;28;20057;-63
2021/01/21 04:55:32;;;;;;;6.47;1.83;;;7.70;74.30;;;;;;5013839;28;20502;-63
2021/01/21 04:58:23;;;;;;;7.70;1.70;;;7.70;74.60;;;;;;5032346;28;20056;-63
2021/01/21 05:00:54;;;;;;;5.63;1.63;;;7.60;74.50;;;;;;5014942;28;20494;-63
2021/01/21 05:03:22;;;;;;;5.17;1.60;;;7.60;74.70;;;;;;5014472;28;20033;-63
2021/01/21 05:06:23;;;;;;;6.47;1.70;;;7.60;74.70;;;;;;4970230;28;20034;-63
2021/01/21 05:08:56;;;;;;;4.00;1.30;;;7.70;74.70;;;;;;4999047;28;20042;-63
2021/01/21 05:11:28;;;;;;;4.87;1.50;;;7.60;74.70;;;;;;5018447;28;20045;-62
2021/01/21 05:14:12;;;;;;;5.07;1.60;;;7.60;74.90;;;;;;4997017;28;20052;-62
2021/01/21 05:17:05;;;;;;;7.67;2.10;;;7.70;75.10;;;;;;4987574;28;20498;-63
2021/01/21 05:19:52;;;;;;;4.47;1.60;;;7.70;75.20;;;;;;5012126;28;20064;-61
2021/01/21 05:22:39;;;;;;;4.77;1.47;;;7.70;74.80;;;;;;4981614;28;20062;-63
2021/01/21 05:25:28;;;;;;;7.07;1.70;;;7.80;74.70;;;;;;4980302;28;20044;-63
2021/01/21 05:28:10;;;;;;;4.97;1.50;;;7.80;74.60;;;;;;5011858;28;20072;-63
2021/01/21 05:31:03;;;;;;;5.37;1.50;;;7.80;74.70;;;;;;5009286;28;20498;-63
2021/01/21 05:33:44;;;;;;;5.03;1.75;;;7.80;74.80;;;;;;4994372;28;20044;-63
2021/01/21 05:36:17;;;;;;;5.30;1.73;;;7.80;74.80;;;;;;5011018;28;20036;-62
2021/01/21 05:39:07;;;;;;;4.97;1.47;;;7.90;74.80;;;;;;4994465;28;20033;-62
2021/01/21 05:41:52;;;;;;;4.20;1.60;;;7.90;74.70;;;;;;5021077;28;20057;-63
2021/01/21 05:44:49;;;;;;;4.80;1.40;;;7.90;74.70;;;;;;5011672;28;20669;-63
2021/01/21 05:47:26;;;;;;;5.20;1.60;;;7.90;74.50;;;;;;5019902;28;20441;-63
2021/01/21 05:49:53;;;;;;;5.13;1.60;;;8.00;74.60;;;;;;5019148;28;20387;-63
2021/01/21 05:52:20;;;;;;;4.70;1.30;;;8.00;74.50;;;;;;5002932;28;20038;-62
2021/01/21 05:54:50;;;;;;;4.07;1.40;;;8.10;74.50;;;;;;5003409;28;20057;-61
2021/01/21 05:57:25;;;;;;;3.13;1.20;;;8.20;74.40;;;;;;5032170;28;20033;-63
2021/01/21 05:59:52;;;;;;;3.90;1.20;;;8.30;74.30;;;;;;5040743;28;20052;-63
2021/01/21 06:02:29;;;;;;;5.70;1.83;;;8.30;73.90;;;;;;5035875;28;20398;-63
2021/01/21 06:05:04;;;;;;;6.03;1.50;;;8.40;73.80;;;;;;5025170;28;20040;-61
2021/01/21 06:07:31;;;;;;;5.47;1.77;;;8.40;73.50;;;;;;5026838;28;20045;-61
2021/01/21 06:10:00;;;;;;;5.10;1.80;;;8.40;73.50;;;;;;5020391;28;20045;-63
2021/01/21 06:12:28;;;;;;;6.80;2.63;;;8.40;73.30;;;;;;5024237;28;20029;-62
2021/01/21 06:14:59;;;;;;;5.27;1.50;;;8.50;73.30;;;;;;5030213;28;20033;-63
2021/01/21 06:17:26;;;;;;;6.13;1.90;;;8.60;73.30;;;;;;5030284;28;20401;-62
2021/01/21 06:20:13;;;;;;;4.80;1.53;;;8.60;73.30;;;;;;5030801;28;20128;-61
2021/01/21 06:22:45;;;;;;;4.80;1.77;;;8.70;73.00;;;;;;5012683;28;20037;-63
2021/01/21 06:25:15;;;;;;;5.73;2.10;;;8.80;72.90;;;;;;5017916;28;20037;-60
2021/01/21 06:27:43;;;;;;;11.47;6.70;;;8.90;73.20;;;;;;5018565;28;20076;-63
2021/01/21 06:30:20;;;;;;;5.27;1.97;;;8.90;72.40;;;;;;5015950;28;20037;-62
2021/01/21 06:32:56;;;;;;;11.37;4.83;;;9.00;72.20;;;;;;5030925;28;20521;-62
2021/01/21 06:35:28;;;;;;;11.87;5.67;;;9.10;72.00;;;;;;5029363;28;20490;-63
2021/01/21 06:37:59;;;;;;;17.83;7.90;;;9.10;71.70;;;;;;5029526;28;20123;-63
2021/01/21 06:40:26;;;;;;;;;;;9.10;71.40;;;;;;5031104;28;20041;-63
2021/01/21 06:42:59;;;;;;;8.83;4.23;;;9.10;71.50;;;;;;5029455;28;20007;-62
2021/01/21 06:45:25;;;;;;;6.57;2.67;;;9.20;71.30;;;;;;5029137;28;20136;-62
2021/01/21 06:47:53;;;;;;;7.60;2.23;;;9.20;71.10;;;;;;5029536;28;20525;-63
2021/01/21 06:50:19;;;;;;;5.25;1.80;;;9.20;71.10;;;;;;5029326;28;20455;-64
2021/01/21 06:52:46;;;;;;;6.65;2.65;;;9.30;70.90;;;;;;5029737;28;20062;-63
2021/01/21 06:55:13;;;;;;;6.03;2.35;;;9.30;70.80;;;;;;5028815;28;20037;-62
2021/01/21 06:57:39;;;;;;;6.37;1.80;;;9.30;70.60;;;;;;5029089;28;20537;-62
2021/01/21 07:00:09;;;;;;;8.00;3.08;;;9.30;70.50;;;;;;5029130;28;20037;-63
2021/01/21 07:02:46;;;;;;;7.03;2.55;;;9.40;70.50;;;;;;5029470;28;20052;-61
2021/01/21 07:05:15;;;;;;;5.90;1.60;;;9.40;70.20;;;;;;5029022;28;20382;-63
2021/01/21 07:07:56;;;;;;;5.15;1.42;;;9.50;70.10;;;;;;5027162;28;20068;-63
2021/01/21 07:10:28;;;;;;;6.07;1.55;;;9.60;70.30;;;;;;5028503;28;20044;-63
2021/01/21 07:12:55;;;;;;;9.93;2.78;;;9.60;69.60;;;;;;5021397;28;20490;-63
2021/01/21 07:31:51;;;;;;;4.60;1.45;;;9.60;68.70;;;;;;5461597;22;20136;-74
2021/01/21 07:34:35;;;;;;;6.07;1.45;;;9.60;69.30;;;;;;5011581;28;20065;-74
2021/01/21 07:37:29;;;;;;;4.68;1.58;;;9.60;69.00;;;;;;5011543;28;20030;-73
2021/01/21 07:40:08;;;;;;;7.63;2.13;;;9.70;69.00;;;;;;5028475;28;20029;-73
2021/01/21 07:42:36;;;;;;;5.35;1.80;;;9.80;68.90;;;;;;4987658;28;20034;-74
2021/01/21 07:45:25;;;;;;;3.42;1.17;;;9.80;68.80;;;;;;5007048;28;20113;-74
2021/01/21 07:47:51;;;;;;;5.03;2.10;;;9.90;68.70;;;;;;4990876;28;20456;-75
2021/01/21 07:50:17;;;;;;;7.78;2.75;;;9.90;68.60;;;;;;5009062;28;20478;-74
2021/01/21 07:52:47;;;;;;;4.00;1.60;;;9.90;68.50;;;;;;5007880;28;20081;-74
2021/01/21 07:55:13;;;;;;;;;;;10.00;68.60;;;;;;5009538;28;20138;-76
2021/01/21 07:57:40;;;;;;;6.03;1.50;;;10.00;68.50;;;;;;5007653;28;20614;-75
2021/01/21 08:00:08;;;;;;;3.47;1.10;;;10.00;68.70;;;;;;5007674;28;20449;-74
2021/01/21 08:02:43;;;;;;;2.63;0.75;;;10.00;69.10;;;;;;4998382;28;20038;-74
2021/01/21 08:05:10;;;;;;;2.88;0.60;;;10.00;69.40;;;;;;4991245;28;20030;-74
2021/01/21 08:08:03;;;;;;;2.22;0.88;;;9.90;70.00;;;;;;5003998;28;20084;-74
2021/01/21 08:10:35;;;;;;;2.58;0.60;;;9.60;71.20;;;;;;4999457;28;20034;-72
2021/01/21 08:13:06;;;;;;;2.13;0.60;;;9.30;72.20;;;;;;4976846;28;20439;-73
2021/01/21 08:15:35;;;;;;;3.05;0.70;;;9.00;73.40;;;;;;4993847;28;20061;-73
2021/01/21 08:18:01;;;;;;;2.57;0.87;;;8.90;74.30;;;;;;4986443;28;20042;-73
2021/01/21 08:20:28;;;;;;;1.92;0.70;;;8.80;74.90;;;;;;4991953;28;20093;-73
2021/01/21 08:23:01;;;;;;;3.77;0.60;;;8.70;75.30;;;;;;4993648;28;20042;-73
2021/01/21 08:25:30;;;;;;;1.23;0.50;;;8.60;75.60;;;;;;4989379;28;20042;-74
2021/01/21 08:27:57;;;;;;;3.37;0.50;;;8.50;75.70;;;;;;5005480;28;20030;-66
2021/01/21 08:30:28;;;;;;;2.37;0.50;;;8.40;75.70;;;;;;5007609;28;20038;-66
2021/01/21 08:33:01;;;;;;;1.73;0.40;;;8.40;75.80;;;;;;5012643;28;20111;-67
2021/01/21 08:35:33;;;;;;;1.70;0.60;;;8.30;75.70;;;;;;5012464;28;20124;-67
2021/01/21 08:38:00;;;;;;;1.70;0.47;;;8.20;75.60;;;;;;5011953;28;20072;-66
2021/01/21 08:40:26;;;;;;;2.50;0.50;;;8.20;75.60;;;;;;5011775;28;20394;-70
2021/01/21 08:42:53;;;;;;;2.10;0.70;;;8.10;75.70;;;;;;5012519;28;20077;-66
2021/01/21 08:45:25;;;;;;;3.20;0.80;;;8.10;75.60;;;;;;5012739;28;20401;-66
2021/01/21 08:47:51;;;;;;;3.33;0.70;;;8.00;75.60;;;;;;5012803;28;20038;-67
2021/01/21 08:50:18;;;;;;;3.80;0.67;;;7.90;75.70;;;;;;4995106;28;20042;-67
2021/01/21 08:53:02;;;;;;;2.27;0.60;;;7.90;75.90;;;;;;5012814;28;20104;-66
2021/01/21 08:55:44;;;;;;;4.27;0.70;;;7.90;75.90;;;;;;5012681;28;20449;-65
2021/01/21 08:58:15;;;;;;;2.83;0.70;;;7.90;76.00;;;;;;5012589;28;20565;-67
2021/01/21 09:01:07;;;;;;;3.97;0.90;;;7.90;76.00;;;;;;5012264;28;20038;-68
2021/01/21 09:03:46;;;;;;;2.83;0.70;;;7.90;75.90;;;;;;5012534;28;20530;-67
2021/01/21 09:06:13;;;;;;;4.80;0.80;;;7.90;75.80;;;;;;5012831;28;20046;-68
2021/01/21 09:08:49;;;;;;;5.47;1.00;;;7.90;75.70;;;;;;5012360;28;20038;-68
2021/01/21 09:11:38;;;;;;;3.80;0.70;;;7.90;75.70;;;;;;5000278;28;20037;-66
2021/01/21 09:14:14;;;;;;;5.47;0.93;;;7.90;75.60;;;;;;5011745;28;20053;-67
2021/01/21 09:16:44;;;;;;;3.37;0.87;;;7.90;75.60;;;;;;5004719;28;20041;-68
2021/01/21 09:19:14;;;;;;;4.25;0.70;;;7.90;75.60;;;;;;5011936;28;20120;-68
2021/01/21 09:22:00;;;;;;;4.87;0.93;;;8.00;75.60;;;;;;5011579;28;20038;-67
2021/01/21 09:24:26;;;;;;;4.50;0.70;;;8.10;75.50;;;;;;5012183;28;20057;-66
2021/01/21 09:27:11;;;;;;;3.00;0.70;;;8.10;75.40;;;;;;5012368;28;20037;-67
2021/01/21 09:29:51;;;;;;;4.00;0.73;;;8.20;75.20;;;;;;4992440;28;20065;-66
2021/01/21 09:32:22;;;;;;;4.53;0.93;;;8.20;75.30;;;;;;4991837;28;20498;-67
2021/01/21 09:35:08;;;;;;;2.83;0.90;;;8.30;75.30;;;;;;4991589;28;20104;-66
2021/01/21 09:37:37;;;;;;;3.37;0.90;;;8.40;75.00;;;;;;4992119;28;20079;-68
2021/01/21 09:40:05;;;;;;;5.30;1.10;;;8.40;74.90;;;;;;4991011;28;20088;-65
2021/01/21 09:42:31;;;;;;;1.83;0.80;;;8.40;74.70;;;;;;4974402;28;20050;-68
2021/01/21 09:44:57;;;;;;;4.77;1.00;;;8.50;74.90;;;;;;4992761;28;20034;-66
2021/01/21 09:47:23;;;;;;;5.30;0.93;;;8.60;75.00;;;;;;4975147;28;20038;-68
2021/01/21 09:49:49;;;;;;;5.57;1.27;;;8.70;75.20;;;;;;4992103;28;20042;-68
2021/01/21 09:52:15;;;;;;;5.00;1.10;;;8.80;74.60;;;;;;4990634;28;20088;-68
2021/01/21 09:54:41;;;;;;;6.10;1.10;;;8.80;74.30;;;;;;4991753;28;20069;-70
2021/01/21 09:57:07;;;;;;;8.90;1.23;;;8.80;74.00;;;;;;4974919;28;20451;-68
2021/01/21 09:59:33;;;;;;;6.33;1.20;;;8.80;74.20;;;;;;4992055;28;20113;-68
2021/01/21 10:02:02;;;;;;;3.60;1.00;;;9.00;74.30;;;;;;4991073;28;20057;-65
2021/01/21 10:04:28;;;;;;;5.63;1.20;;;9.00;73.70;;;;;;4975162;28;20042;-69
2021/01/21 10:06:54;;;;;;;6.03;1.20;;;9.00;72.80;;;;;;4991761;28;20046;-67
2021/01/21 10:09:20;;;;;;;3.63;0.93;;;8.80;73.10;;;;;;4974626;28;20039;-69
2021/01/21 10:11:46;;;;;;;3.73;1.17;;;8.70;73.00;;;;;;4991411;28;20042;-73
2021/01/21 10:14:12;;;;;;;6.07;1.40;;;8.50;73.30;;;;;;5003492;28;20034;-73
2021/01/21 10:16:38;;;;;;;7.60;1.33;;;8.40;73.50;;;;;;5001243;28;20029;-74
2021/01/21 10:19:04;;;;;;;7.87;1.40;;;8.50;74.20;;;;;;4970021;28;20040;-72
2021/01/21 10:21:30;;;;;;;4.90;1.40;;;8.60;74.40;;;;;;5001143;28;20039;-74
2021/01/21 10:23:57;;;;;;;6.30;1.50;;;8.70;74.20;;;;;;5006668;28;20035;-75
2021/01/21 10:26:23;;;;;;;5.83;1.13;;;8.90;74.00;;;;;;5006079;28;20041;-74
2021/01/21 10:28:49;;;;;;;6.95;1.50;;;9.00;73.60;;;;;;5010921;28;20042;-75
2021/01/21 10:31:15;;;;;;;4.90;1.50;;;9.10;73.70;;;;;;5009194;28;20121;-74
2021/01/21 10:33:43;;;;;;;5.13;1.40;;;9.30;73.50;;;;;;5010684;28;20049;-75
2021/01/21 10:36:10;;;;;;;5.55;1.30;;;9.50;72.90;;;;;;5010975;28;20395;-74
2021/01/21 10:38:39;;;;;;;6.85;1.50;;;9.50;72.40;;;;;;4992667;28;20037;-74
2021/01/21 10:41:06;;;;;;;3.60;1.05;;;9.60;72.10;;;;;;5009990;28;20042;-72
2021/01/21 10:43:33;;;;;;;6.20;1.40;;;9.70;71.80;;;;;;4992994;28;20545;-74
2021/01/21 10:45:59;;;;;;;6.03;1.25;;;9.80;71.70;;;;;;4993363;28;20185;-73
2021/01/21 10:48:25;;;;;;;5.40;1.10;;;9.90;71.40;;;;;;4993287;28;20599;-74
2021/01/21 10:50:51;;;;;;;3.92;1.08;;;10.00;70.50;;;;;;4991700;28;20038;-73
2021/01/21 10:53:18;;;;;;;6.80;1.58;;;10.00;71.00;;;;;;5010870;28;20034;-74
2021/01/21 10:55:44;;;;;;;8.02;1.20;;;10.00;70.00;;;;;;5010297;28;20097;-74
2021/01/21 10:58:10;;;;;;;3.83;1.40;;;10.00;69.80;;;;;;4993073;28;20453;-75
2021/01/21 11:00:36;;;;;;;3.33;1.10;;;9.80;68.60;;;;;;5009812;28;20034;-74
2021/01/21 11:03:03;;;;;;;5.13;1.08;;;9.70;68.70;;;;;;5010081;28;20104;-73
2021/01/21 11:05:29;;;;;;;3.65;1.10;;;9.60;68.90;;;;;;4992815;28;20116;-73
2021/01/21 11:07:55;;;;;;;6.50;1.13;;;9.70;69.90;;;;;;4992733;28;20422;-70
2021/01/21 11:10:21;;;;;;;3.78;1.00;;;10.00;69.70;;;;;;5009729;28;20037;-72
2021/01/21 11:12:48;;;;;;;4.95;1.60;;;9.90;67.80;;;;;;4992780;28;20065;-72
2021/01/21 11:15:16;;;;;;;8.68;1.40;;;9.70;67.20;;;;;;4992719;28;20046;-72
2021/01/21 11:17:47;;;;;;;5.40;1.02;;;9.60;67.60;;;;;;4976780;28;20509;-71
2021/01/21 11:20:16;;;;;;;4.93;1.17;;;9.60;67.40;;;;;;5009272;28;20045;-72
2021/01/21 11:22:42;;;;;;;5.18;1.20;;;9.50;67.30;;;;;;5006698;28;20065;-72
2021/01/21 11:25:10;;;;;;;6.85;1.30;;;9.40;67.40;;;;;;4991697;28;20101;-73
2021/01/21 11:27:39;;;;;;;3.90;1.20;;;9.40;67.40;;;;;;5008718;28;20054;-73
2021/01/21 11:30:08;;;;;;;4.97;1.25;;;9.60;67.60;;;;;;5004798;28;20445;-74
2021/01/21 11:32:34;;;;;;;5.18;1.17;;;9.80;67.40;;;;;;4989094;28;20041;-74
2021/01/21 11:35:01;;;;;;;5.75;1.27;;;10.00;67.30;;;;;;4996668;28;20042;-72
2021/01/21 11:37:27;;;;;;;6.20;1.10;;;10.10;66.00;;;;;;4998733;28;20066;-72
2021/01/21 11:39:53;;;;;;;4.90;1.38;;;10.20;65.70;;;;;;4989181;28;20038;-74
2021/01/21 11:42:19;;;;;;;4.70;1.40;;;10.20;65.40;;;;;;4989719;28;20088;-72
2021/01/21 11:44:45;;;;;;;6.90;1.48;;;10.30;65.90;;;;;;4992489;28;20403;-73
2021/01/21 11:47:11;;;;;;;4.10;1.10;;;10.40;65.30;;;;;;4994236;28;20038;-72
2021/01/21 11:49:37;;;;;;;4.55;1.20;;;10.50;64.70;;;;;;4993687;28;20073;-73
2021/01/21 11:52:04;;;;;;;5.40;1.20;;;10.30;64.10;;;;;;5002015;28;20045;-72
2021/01/21 11:54:30;;;;;;;5.35;1.25;;;10.10;63.80;;;;;;5011211;28;20029;-73
2021/01/21 11:56:56;;;;;;;4.43;1.20;;;10.00;64.30;;;;;;5011322;28;20029;-73
2021/01/21 11:59:22;;;;;;;7.30;1.05;;;9.90;64.50;;;;;;4962913;28;20049;-73
2021/01/21 12:01:48;;;;;;;4.97;1.20;;;9.80;64.30;;;;;;5010865;28;20038;-72
2021/01/21 12:04:13;;;;;;;7.38;1.30;;;9.90;64.50;;;;;;4996015;28;20030;-72
2021/01/21 12:06:40;;;;;;;3.33;1.10;;;10.00;64.60;;;;;;4992738;28;20030;-73
2021/01/21 12:09:06;;;;;;;6.18;1.50;;;10.50;64.20;;;;;;5011067;28;20037;-72
2021/01/21 12:11:33;;;;;;;4.05;1.20;;;11.20;62.80;;;;;;4995249;28;20083;-74
2021/01/21 12:14:00;;;;;;;5.60;1.05;;;11.80;61.30;;;;;;4995331;28;20562;-73
2021/01/21 12:16:26;;;;;;;6.13;1.42;;;12.40;60.40;;;;;;4995241;28;20037;-74
2021/01/21 12:18:54;;;;;;;5.50;1.10;;;13.20;60.10;;;;;;5013379;28;20421;-74
2021/01/21 12:21:20;;;;;;;4.78;1.15;;;14.20;59.30;;;;;;5011686;28;20049;-72
2021/01/21 12:23:46;;;;;;;4.43;1.00;;;15.20;57.00;;;;;;5013117;28;20088;-72
2021/01/21 12:26:12;;;;;;;5.47;1.35;;;15.20;53.80;;;;;;5011070;28;20034;-73
2021/01/21 12:28:38;;;;;;;3.90;0.93;;;14.90;53.50;;;;;;4995374;28;20121;-72
2021/01/21 12:31:05;;;;;;;4.88;1.05;;;14.80;53.00;;;;;;4994510;28;20038;-73
2021/01/21 12:33:31;;;;;;;7.97;1.58;;;14.20;51.90;;;;;;4994446;28;20064;-74
2021/01/21 12:35:58;;;;;;;4.60;1.10;;;13.40;51.90;;;;;;4988550;28;20044;-74
2021/01/21 12:38:25;;;;;;;5.13;1.20;;;12.60;52.70;;;;;;5012589;28;20485;-74
2021/01/21 12:40:52;;;;;;;3.58;0.90;;;12.00;54.50;;;;;;5012186;28;20087;-74
2021/01/21 12:43:18;;;;;;;6.18;1.20;;;11.80;55.80;;;;;;4995029;28;20376;-73
2021/01/21 12:45:45;;;;;;;5.75;1.23;;;11.60;55.60;;;;;;5007152;28;20041;-73
2021/01/21 12:48:14;;;;;;;6.82;1.27;;;11.40;55.90;;;;;;5011337;28;20137;-73
2021/01/21 12:50:40;;;;;;;6.55;1.45;;;11.20;56.00;;;;;;5009475;28;20278;-72
2021/01/21 12:53:06;;;;;;;6.50;1.00;;;11.10;55.80;;;;;;5004711;28;20039;-73
2021/01/21 12:55:33;;;;;;;6.82;1.27;;;10.70;55.50;;;;;;4989866;28;20034;-75
2021/01/21 12:57:58;;;;;;;4.47;1.17;;;10.30;56.30;;;;;;4987128;28;20510;-74
2021/01/21 13:00:25;;;;;;;3.03;1.00;;;10.10;56.80;;;;;;4988723;28;20035;-74
2021/01/21 13:02:51;;;;;;;7.35;1.30;;;10.00;57.30;;;;;;4985516;28;20053;-73
2021/01/21 13:05:17;;;;;;;7.57;1.40;;;9.90;57.60;;;;;;4988938;28;20038;-74
2021/01/21 13:07:44;;;;;;;5.65;1.20;;;9.90;57.80;;;;;;4990794;28;20406;-73
2021/01/21 13:10:10;;;;;;;8.55;1.20;;;9.90;58.10;;;;;;4987752;28;20562;-73
2021/01/21 13:12:36;;;;;;;5.88;1.30;;;9.90;58.00;;;;;;5004162;28;20036;-75
2021/01/21 13:15:04;;;;;;;5.03;1.30;;;9.90;58.00;;;;;;5004243;28;20124;-75
2021/01/21 13:17:29;;;;;;;7.00;1.20;;;9.90;58.30;;;;;;5013101;28;20056;-74
2021/01/21 13:19:55;;;;;;;11.63;1.60;;;9.90;57.90;;;;;;4994313;28;20502;-74
2021/01/21 13:22:21;;;;;;;8.15;1.40;;;9.90;58.20;;;;;;5012579;28;20041;-74
2021/01/21 13:24:47;;;;;;;6.43;1.50;;;10.10;58.50;;;;;;5000568;28;20042;-73
2021/01/21 13:27:13;;;;;;;5.45;1.02;;;10.20;58.40;;;;;;5012981;28;20046;-74
2021/01/21 13:29:38;;;;;;;9.05;1.48;;;10.40;58.20;;;;;;5010883;28;20038;-74
2021/01/21 13:32:04;;;;;;;4.90;1.30;;;10.50;57.50;;;;;;4987621;28;20046;-72